createdAt,value
2022-12-04T00:00:08.289Z,101930.06
2022-12-04T00:02:35.400Z,101928.56
2022-12-04T00:05:06.656Z,101927.78
2022-12-04T00:07:33.382Z,101925.97
2022-12-04T00:10:00.441Z,101932.13
2022-12-04T00:12:29.955Z,101928.72
2022-12-04T00:17:42.590Z,101931.84
2022-12-04T00:20:09.339Z,101940.25
2022-12-04T00:22:35.746Z,101929.91
2022-12-04T00:25:02.100Z,101926.50
2022-12-04T00:27:28.604Z,101923.09
2022-12-04T00:29:55.292Z,101927.47
2022-12-04T00:32:21.838Z,101934.38
2022-12-04T00:34:51.477Z,101927.31
2022-12-04T00:37:19.976Z,101939.34
2022-12-04T00:39:48.851Z,101923.72
2022-12-04T00:42:15.334Z,101933.19
2022-12-04T00:44:41.707Z,101919.53
2022-12-04T00:47:08.058Z,101922.00
2022-12-04T00:49:34.529Z,101919.59
2022-12-04T00:52:00.887Z,101911.13
2022-12-04T00:54:27.251Z,101911.41
2022-12-04T00:56:53.683Z,101902.81
2022-12-04T00:59:20.142Z,101898.63
2022-12-04T01:01:46.571Z,101905.59
2022-12-04T01:04:12.971Z,101901.16
2022-12-04T01:06:39.369Z,101908.72
2022-12-04T01:09:06.063Z,101907.81
2022-12-04T01:11:33.323Z,101906.75
2022-12-04T01:13:59.978Z,101905.88
2022-12-04T01:16:33.815Z,101913.91
2022-12-04T01:19:00.614Z,101899.34
2022-12-04T01:21:27.599Z,101909.63
2022-12-04T01:23:56.283Z,101912.81
2022-12-04T01:26:22.968Z,101915.25
2022-12-04T01:28:49.340Z,101912.53
2022-12-04T01:31:19.630Z,101909.06
2022-12-04T01:33:47.351Z,101911.75
2022-12-04T01:36:17.438Z,101901.09
2022-12-04T01:38:44.452Z,101905.66
2022-12-04T01:41:13.364Z,101897.72
2022-12-04T01:43:40.918Z,101910.84
2022-12-04T01:46:08.723Z,101909.16
2022-12-04T01:48:48.767Z,101911.13
2022-12-04T01:51:50.006Z,101905.88
2022-12-04T01:54:22.244Z,101904.25
2022-12-04T01:56:59.472Z,101907.53
2022-12-04T01:59:32.769Z,101910.06
2022-12-04T02:02:09.724Z,101899.13
2022-12-04T02:04:37.205Z,101904.50
2022-12-04T02:07:03.835Z,101909.59
2022-12-04T02:09:31.556Z,101921.25
2022-12-04T02:12:09.003Z,101919.19
2022-12-04T02:14:52.292Z,101920.88
2022-12-04T02:17:36.547Z,101916.19
2022-12-04T02:20:29.738Z,101903.53
2022-12-04T02:23:08.122Z,101910.66
2022-12-04T02:25:40.618Z,101902.81
2022-12-04T02:28:23.215Z,101909.69
2022-12-04T02:30:50.897Z,101904.69
2022-12-04T02:33:27.573Z,101916.84
2022-12-04T02:36:11.024Z,101911.84
2022-12-04T02:38:41.686Z,101908.16
2022-12-04T02:41:07.994Z,101914.94
2022-12-04T02:43:57.896Z,101906.19
2022-12-04T02:46:39.761Z,101896.53
2022-12-04T02:49:15.614Z,101913.25
2022-12-04T02:51:44.804Z,101904.50
2022-12-04T02:54:21.989Z,101910.59
2022-12-04T02:56:51.768Z,101905.59
2022-12-04T02:59:23.941Z,101903.16
2022-12-04T03:01:53.990Z,101899.88
2022-12-04T03:04:24.586Z,101891.81
2022-12-04T03:06:58.406Z,101895.94
2022-12-04T03:09:36.697Z,101903.41
2022-12-04T03:12:09.568Z,101901.72
2022-12-04T03:14:42.305Z,101889.56
2022-12-04T03:17:18.054Z,101890.56
2022-12-04T03:19:51.447Z,101889.03
2022-12-04T03:22:24.041Z,101878.63
2022-12-04T03:24:53.655Z,101880.56
2022-12-04T03:27:46.138Z,101882.56
2022-12-04T03:30:18.717Z,101875.66
2022-12-04T03:32:56.614Z,101877.63
2022-12-04T03:35:29.424Z,101876.75
2022-12-04T03:38:12.178Z,101879.16
2022-12-04T03:40:43.647Z,101873.09
2022-12-04T03:43:16.455Z,101867.03
2022-12-04T03:45:52.075Z,101861.91
2022-12-04T03:48:25.169Z,101871.38
2022-12-04T03:51:09.293Z,101865.59
2022-12-04T03:53:44.357Z,101867.66
2022-12-04T03:56:13.613Z,101862.53
2022-12-04T03:58:45.729Z,101875.69
2022-12-04T04:01:15.213Z,101875.78
2022-12-04T04:03:50.297Z,101880.09
2022-12-04T04:06:24.430Z,101877.38
2022-12-04T04:08:56.100Z,101878.97
2022-12-04T04:11:40.749Z,101876.50
2022-12-04T04:14:53.522Z,101882.75
2022-12-04T04:17:42.780Z,101885.53
2022-12-04T04:20:34.628Z,101879.25
2022-12-04T04:23:22.027Z,101874.91
2022-12-04T04:25:49.348Z,101880.16
2022-12-04T04:28:34.297Z,101877.56
2022-12-04T04:31:23.638Z,101869.78
2022-12-04T04:33:56.990Z,101867.59
2022-12-04T04:36:53.016Z,101864.72
2022-12-04T04:39:28.685Z,101874.00
2022-12-04T04:42:01.764Z,101873.09
2022-12-04T04:44:56.577Z,101878.19
2022-12-04T04:47:36.576Z,101858.19
2022-12-04T04:50:07.190Z,101869.72
2022-12-04T04:52:51.015Z,101874.91
2022-12-04T04:55:19.720Z,101877.66
2022-12-04T04:57:46.067Z,101872.19
2022-12-04T05:00:16.805Z,101880.50
2022-12-04T05:02:43.562Z,101867.47
2022-12-04T05:05:10.510Z,101865.78
2022-12-04T05:07:36.994Z,101866.66
2022-12-04T05:10:04.267Z,101877.91
2022-12-04T05:12:30.687Z,101880.22
2022-12-04T05:14:57.084Z,101870.78
2022-12-04T05:17:23.513Z,101867.03
2022-12-04T05:19:57.188Z,101881.50
2022-12-04T05:22:29.809Z,101878.81
2022-12-04T05:24:56.480Z,101881.50
2022-12-04T05:27:24.347Z,101888.28
2022-12-04T05:29:55.336Z,101883.09
2022-12-04T05:32:23.375Z,101886.69
2022-12-04T05:34:51.298Z,101892.66
2022-12-04T05:37:18.390Z,101885.69
2022-12-04T05:39:45.202Z,101895.34
2022-12-04T05:42:12.329Z,101880.50
2022-12-04T05:44:38.978Z,101887.47
2022-12-04T05:47:05.756Z,101887.47
2022-12-04T05:49:33.577Z,101891.75
2022-12-04T05:52:01.144Z,101877.91
2022-12-04T05:54:30.607Z,101884.16
2022-12-04T05:56:58.146Z,101885.09
2022-12-04T05:59:24.658Z,101881.69
2022-12-04T06:01:51.141Z,101881.78
2022-12-04T06:04:19.273Z,101886.03
2022-12-04T06:06:45.691Z,101884.38
2022-12-04T06:09:12.748Z,101887.03
2022-12-04T06:11:40.671Z,101887.84
2022-12-04T06:14:12.159Z,101886.84
2022-12-04T06:16:41.535Z,101889.72
2022-12-04T06:19:13.049Z,101896.63
2022-12-04T06:21:41.037Z,101880.97
2022-12-04T06:24:10.593Z,101893.50
2022-12-04T06:26:36.941Z,101884.03
2022-12-04T06:29:03.315Z,101884.91
2022-12-04T06:31:30.534Z,101883.31
2022-12-04T06:33:58.072Z,101886.19
2022-12-04T06:36:25.317Z,101882.78
2022-12-04T06:38:54.257Z,101889.47
2022-12-04T06:41:22.027Z,101883.38
2022-12-04T06:43:55.331Z,101889.38
2022-12-04T06:46:25.143Z,101886.59
2022-12-04T06:48:51.834Z,101883.03
2022-12-04T06:51:21.114Z,101887.22
2022-12-04T06:53:47.891Z,101882.03
2022-12-04T06:56:18.260Z,101890.03
2022-12-04T06:58:49.487Z,101885.53
2022-12-04T07:01:18.406Z,101889.72
2022-12-04T07:03:51.072Z,101892.50
2022-12-04T07:06:19.736Z,101890.97
2022-12-04T07:08:48.662Z,101892.78
2022-12-04T07:11:16.094Z,101896.16
2022-12-04T07:13:42.869Z,101891.88
2022-12-04T07:16:13.297Z,101896.25
2022-12-04T07:18:39.902Z,101892.78
2022-12-04T07:21:08.516Z,101901.44
2022-12-04T07:23:35.437Z,101897.03
2022-12-04T07:26:10.505Z,101906.69
2022-12-04T07:28:37.808Z,101899.75
2022-12-04T07:31:08.314Z,101900.75
2022-12-04T07:33:35.331Z,101899.91
2022-12-04T07:36:04.294Z,101891.16
2022-12-04T07:38:31.838Z,101897.16
2022-12-04T07:40:59.476Z,101884.84
2022-12-04T07:43:27.110Z,101877.84
2022-12-04T07:45:53.526Z,101891.09
2022-12-04T07:48:19.938Z,101897.97
2022-12-04T07:50:46.448Z,101894.38
2022-12-04T07:53:13.226Z,101905.34
2022-12-04T07:55:39.649Z,101900.16
2022-12-04T07:58:06.219Z,101902.75
2022-12-04T08:00:32.869Z,101897.34
2022-12-04T08:03:02.074Z,101906.34
2022-12-04T08:05:28.621Z,101918.88
2022-12-04T08:07:55.038Z,101916.47
2022-12-04T08:10:21.557Z,101913.16
2022-12-04T08:12:47.882Z,101912.28
2022-12-04T08:15:14.309Z,101915.88
2022-12-04T08:17:40.715Z,101908.97
2022-12-04T08:20:10.710Z,101912.56
2022-12-04T08:22:38.113Z,101923.72
2022-12-04T08:25:10.449Z,101926.84
2022-12-04T08:27:36.703Z,101932.19
2022-12-04T08:30:03.553Z,101937.09
2022-12-04T08:32:30.071Z,101929.06
2022-12-04T08:34:56.462Z,101929.25
2022-12-04T08:37:22.991Z,101935.13
2022-12-04T08:39:51.830Z,101929.25
2022-12-04T08:42:18.341Z,101938.00
2022-12-04T08:44:45.699Z,101931.03
2022-12-04T08:47:12.205Z,101937.19
2022-12-04T08:49:38.691Z,101935.78
2022-12-04T08:52:05.149Z,101936.78
2022-12-04T08:54:35.964Z,101931.59
2022-12-04T08:57:03.416Z,101947.31
2022-12-04T08:59:32.647Z,101937.84
2022-12-04T09:01:59.038Z,101944.81
2022-12-04T09:04:28.348Z,101942.84
2022-12-04T09:06:57.383Z,101944.97
2022-12-04T09:09:23.704Z,101938.50
2022-12-04T09:11:50.064Z,101952.41
2022-12-04T09:14:16.490Z,101937.44
2022-12-04T09:16:43.027Z,101943.69
2022-12-04T09:19:09.490Z,101950.75
2022-12-04T09:21:36.756Z,101950.75
2022-12-04T09:24:03.190Z,101942.22
2022-12-04T09:26:32.187Z,101947.22
2022-12-04T09:29:03.864Z,101950.75
2022-12-04T09:31:31.413Z,101954.06
2022-12-04T09:34:02.035Z,101943.63
2022-12-04T09:36:28.811Z,101945.50
2022-12-04T09:38:55.666Z,101951.69
2022-12-04T09:41:46.992Z,101955.88
2022-12-04T09:44:45.634Z,101952.41
2022-12-04T09:47:37.018Z,101953.19
2022-12-04T09:50:21.564Z,101948.00
2022-12-04T09:53:03.221Z,101946.41
2022-12-04T09:55:55.965Z,101939.63
2022-12-04T09:58:25.638Z,101943.91
2022-12-04T10:00:53.865Z,101938.50
2022-12-04T10:03:24.982Z,101930.84
2022-12-04T10:06:20.927Z,101940.41
2022-12-04T10:08:57.068Z,101934.44
2022-12-04T10:11:32.051Z,101930.03
2022-12-04T10:14:20.507Z,101931.03
2022-12-04T10:17:07.911Z,101942.38
2022-12-04T10:20:05.215Z,101933.00
2022-12-04T10:22:57.725Z,101929.44
2022-12-04T10:25:26.434Z,101930.25
2022-12-04T10:28:17.603Z,101928.59
2022-12-04T10:30:45.564Z,101926.94
2022-12-04T10:33:33.424Z,101931.47
2022-12-04T10:36:01.369Z,101931.47
2022-12-04T10:38:40.984Z,101925.94
2022-12-04T10:41:15.261Z,101931.84
2022-12-04T10:43:47.447Z,101925.06
2022-12-04T10:46:23.629Z,101931.31
2022-12-04T10:48:56.013Z,101928.53
2022-12-04T10:51:22.985Z,101923.63
2022-12-04T10:53:50.350Z,101927.00
2022-12-04T10:56:22.388Z,101921.66
2022-12-04T10:59:15.690Z,101927.66
2022-12-04T11:01:42.244Z,101919.47
2022-12-04T11:04:27.569Z,101914.31
2022-12-04T11:07:07.091Z,101923.34
2022-12-04T11:09:33.874Z,101916.34
2022-12-04T11:12:18.974Z,101908.59
2022-12-04T11:14:47.252Z,101900.81
2022-12-04T11:17:19.336Z,101900.91
2022-12-04T11:19:46.090Z,101902.97
2022-12-04T11:22:15.898Z,101902.97
2022-12-04T11:24:43.538Z,101898.50
2022-12-04T11:27:27.698Z,101890.44
2022-12-04T11:29:55.571Z,101887.84
2022-12-04T11:32:29.571Z,101894.91
2022-12-04T11:35:05.825Z,101893.31
2022-12-04T11:37:34.828Z,101884.66
2022-12-04T11:40:05.055Z,101892.78
2022-12-04T11:42:33.997Z,101897.97
2022-12-04T11:45:03.228Z,101894.22
2022-12-04T11:47:32.594Z,101887.25
2022-12-04T11:50:14.193Z,101887.78
2022-12-04T11:52:59.211Z,101888.50
2022-12-04T11:55:37.764Z,101885.34
2022-12-04T11:58:25.629Z,101881.97
2022-12-04T12:01:22.546Z,101864.44
2022-12-04T12:04:29.394Z,101865.13
2022-12-04T12:07:16.765Z,101854.53
2022-12-04T12:10:04.422Z,101849.59
2022-12-04T12:13:02.181Z,101851.66
2022-12-04T12:15:57.787Z,101847.81
2022-12-04T12:18:49.784Z,101842.28
2022-12-04T12:21:23.721Z,101845.22
2022-12-04T12:24:16.844Z,101847.38
2022-12-04T12:27:10.747Z,101851.94
2022-12-04T12:29:59.718Z,101846.28
2022-12-04T12:32:36.492Z,101854.72
2022-12-04T12:35:05.072Z,101849.00
2022-12-04T12:37:46.487Z,101837.91
2022-12-04T12:40:21.961Z,101844.78
2022-12-04T12:42:58.432Z,101844.88
2022-12-04T12:45:45.630Z,101843.25
2022-12-04T12:48:38.671Z,101843.25
2022-12-04T12:51:31.093Z,101843.53
2022-12-04T12:54:15.273Z,101841.00
2022-12-04T12:56:49.877Z,101838.69
2022-12-04T12:59:20.890Z,101841.38
2022-12-04T13:02:02.377Z,101831.81
2022-12-04T13:04:43.400Z,101836.75
2022-12-04T13:07:21.724Z,101838.34
2022-12-04T13:09:56.452Z,101833.97
2022-12-04T13:12:24.799Z,101830.47
2022-12-04T13:14:51.160Z,101834.94
2022-12-04T13:17:28.514Z,101834.31
2022-12-04T13:19:59.553Z,101838.97
2022-12-04T13:22:41.250Z,101828.94
2022-12-04T13:25:36.541Z,101821.41
2022-12-04T13:28:30.986Z,101821.41
2022-12-04T13:31:10.577Z,101827.31
2022-12-04T13:33:58.898Z,101818.66
2022-12-04T13:36:42.601Z,101820.19
2022-12-04T13:39:27.452Z,101825.72
2022-12-04T13:42:02.682Z,101820.81
2022-12-04T13:44:30.801Z,101813.81
2022-12-04T13:47:01.889Z,101800.41
2022-12-04T13:49:31.455Z,101819.16
2022-12-04T13:52:02.700Z,101817.66
2022-12-04T13:54:33.607Z,101824.63
2022-12-04T13:57:20.899Z,101819.53
2022-12-04T13:59:49.034Z,101825.44
2022-12-04T14:02:29.447Z,101812.19
2022-12-04T14:05:07.487Z,101811.22
2022-12-04T14:07:39.446Z,101816.13
2022-12-04T14:10:14.913Z,101825.63
2022-12-04T14:12:49.007Z,101822.84
2022-12-04T14:15:24.571Z,101823.75
2022-12-04T14:18:28.760Z,101828.94
2022-12-04T14:21:06.145Z,101822.13
2022-12-04T14:23:41.523Z,101827.59
2022-12-04T14:26:37.352Z,101828.59
2022-12-04T14:29:35.073Z,101826.44
2022-12-04T14:32:09.469Z,101821.88
2022-12-04T14:34:39.921Z,101827.44
2022-12-04T14:37:07.006Z,101829.38
2022-12-04T14:39:44.177Z,101825.06
2022-12-04T14:42:23.237Z,101818.19
2022-12-04T14:44:55.264Z,101823.63
2022-12-04T14:47:43.951Z,101818.69
2022-12-04T14:50:18.972Z,101826.47
2022-12-04T14:52:58.877Z,101822.13
2022-12-04T14:55:56.386Z,101832.41
2022-12-04T14:58:34.706Z,101833.84
2022-12-04T15:01:29.522Z,101832.28
2022-12-04T15:04:01.048Z,101824.84
2022-12-04T15:06:30.283Z,101838.94
2022-12-04T15:09:31.827Z,101830.34
2022-12-04T15:12:17.444Z,101830.19
2022-12-04T15:14:49.116Z,101821.25
2022-12-04T15:17:17.808Z,101831.97
2022-12-04T15:19:44.705Z,101819.81
2022-12-04T15:22:26.453Z,101826.06
2022-12-04T15:24:54.727Z,101832.94
2022-12-04T15:27:28.837Z,101827.94
2022-12-04T15:30:00.417Z,101831.25
2022-12-04T15:32:31.358Z,101837.47
2022-12-04T15:35:03.173Z,101836.53
2022-12-04T15:37:31.733Z,101839.03
2022-12-04T15:39:59.418Z,101835.72
2022-12-04T15:42:31.257Z,101834.00
2022-12-04T15:45:09.650Z,101841.72
2022-12-04T15:47:42.245Z,101835.81
2022-12-04T15:50:16.154Z,101842.88
2022-12-04T15:53:04.471Z,101845.47
2022-12-04T15:55:40.448Z,101842.78
2022-12-04T15:58:20.344Z,101838.31
2022-12-04T16:00:56.650Z,101838.25
2022-12-04T16:03:34.431Z,101828.94
2022-12-04T16:06:27.195Z,101844.22
2022-12-04T16:08:54.627Z,101852.97
2022-12-04T16:11:21.337Z,101858.22
2022-12-04T16:13:50.139Z,101861.03
2022-12-04T16:16:22.091Z,101869.59
2022-12-04T16:18:49.003Z,101857.34
2022-12-04T16:21:22.657Z,101863.53
2022-12-04T16:23:49.490Z,101860.94
2022-12-04T16:26:18.570Z,101868.16
2022-12-04T16:28:45.958Z,101858.78
2022-12-04T16:31:13.756Z,101863.97
2022-12-04T16:33:40.712Z,101856.59
2022-12-04T16:36:10.194Z,101859.91
2022-12-04T16:38:36.773Z,101868.63
2022-12-04T16:41:06.275Z,101863.44
2022-12-04T16:43:32.662Z,101861.94
2022-12-04T16:46:01.378Z,101852.44
2022-12-04T16:48:29.510Z,101858.34
2022-12-04T16:50:55.949Z,101861.28
2022-12-04T16:53:22.666Z,101861.38
2022-12-04T16:55:51.167Z,101846.69
2022-12-04T16:58:19.366Z,101853.50
2022-12-04T17:00:52.017Z,101856.97
2022-12-04T17:03:26.178Z,101855.38
2022-12-04T17:05:52.727Z,101861.44
2022-12-04T17:08:19.192Z,101856.75
2022-12-04T17:10:45.656Z,101861.28
2022-12-04T17:13:12.059Z,101861.44
2022-12-04T17:15:38.705Z,101858.94
2022-12-04T17:18:11.233Z,101859.09
2022-12-04T17:20:43.833Z,101863.47
2022-12-04T17:23:11.819Z,101862.75
2022-12-04T17:25:38.954Z,101864.81
2022-12-04T17:28:06.439Z,101862.22
2022-12-04T17:30:36.024Z,101856.78
2022-12-04T17:33:03.950Z,101861.13
2022-12-04T17:35:30.801Z,101864.81
2022-12-04T17:38:02.101Z,101853.72
2022-12-04T17:40:32.019Z,101863.91
2022-12-04T17:43:01.984Z,101858.72
2022-12-04T17:45:28.634Z,101865.78
2022-12-04T17:47:55.085Z,101867.47
2022-12-04T17:50:21.462Z,101871.63
2022-12-04T17:52:48.251Z,101874.22
2022-12-04T17:55:14.705Z,101875.09
2022-12-04T17:57:42.314Z,101870.47
2022-12-04T18:00:09.396Z,101870.47
2022-12-04T18:02:36.447Z,101874.63
2022-12-04T18:05:03.612Z,101875.72
2022-12-04T18:07:31.341Z,101875.00
2022-12-04T18:09:58.048Z,101872.59
2022-12-04T18:12:24.678Z,101872.84
2022-12-04T18:14:51.051Z,101873.19
2022-12-04T18:17:17.631Z,101877.66
2022-12-04T18:19:43.972Z,101883.81
2022-12-04T18:22:10.344Z,101880.41
2022-12-04T18:24:36.859Z,101873.25
2022-12-04T18:27:05.709Z,101880.31
2022-12-04T18:29:32.191Z,101879.59
2022-12-04T18:31:58.635Z,101886.59
2022-12-04T18:34:25.153Z,101891.84
2022-12-04T18:36:51.584Z,101896.16
2022-12-04T18:39:20.990Z,101898.03
2022-12-04T18:41:47.677Z,101901.50
2022-12-04T18:44:15.201Z,101904.84
2022-12-04T18:46:41.972Z,101894.38
2022-12-04T18:49:11.643Z,101905.66
2022-12-04T18:51:44.595Z,101902.06
2022-12-04T18:54:16.442Z,101897.72
2022-12-04T18:56:44.132Z,101890.81
2022-12-04T18:59:19.738Z,101894.03
2022-12-04T19:01:46.773Z,101894.75
2022-12-04T19:04:16.642Z,101890.44
2022-12-04T19:06:45.754Z,101890.53
2022-12-04T19:09:15.495Z,101896.72
2022-12-04T19:11:42.102Z,101893.97
2022-12-04T19:14:17.540Z,101904.50
2022-12-04T19:16:44.713Z,101898.59
2022-12-04T19:19:11.790Z,101897.72
2022-12-04T19:21:38.514Z,101896.31
2022-12-04T19:24:05.263Z,101897.22
2022-12-04T19:26:33.750Z,101889.41
2022-12-04T19:29:01.764Z,101897.94
2022-12-04T19:31:34.456Z,101893.41
2022-12-04T19:34:01.626Z,101891.78
2022-12-04T19:36:30.264Z,101895.44
2022-12-04T19:38:58.027Z,101905.00
2022-12-04T19:41:26.904Z,101896.41
2022-12-04T19:43:56.926Z,101903.47
2022-12-04T19:46:28.792Z,101906.97
2022-12-04T19:48:58.272Z,101904.38
2022-12-04T19:51:25.533Z,101913.16
2022-12-04T19:53:53.974Z,101909.00
2022-12-04T19:56:24.487Z,101908.28
2022-12-04T19:58:53.908Z,101902.91
2022-12-04T20:01:24.858Z,101907.44
2022-12-04T20:03:51.278Z,101896.25
2022-12-04T20:06:21.498Z,101900.63
2022-12-04T20:08:52.575Z,101901.47
2022-12-04T20:11:19.848Z,101900.53
2022-12-04T20:13:48.501Z,101902.41
2022-12-04T20:16:17.959Z,101902.59
2022-12-04T20:18:45.260Z,101905.34
2022-12-04T20:21:12.923Z,101901.03
2022-12-04T20:23:58.238Z,101897.47
2022-12-04T20:26:27.920Z,101905.50
2022-12-04T20:28:59.688Z,101893.34
2022-12-04T20:31:32.114Z,101890.81
2022-12-04T20:33:59.200Z,101896.25
2022-12-04T20:36:28.819Z,101897.06
2022-12-04T20:39:00.023Z,101895.28
2022-12-04T20:41:28.840Z,101889.19
2022-12-04T20:43:58.356Z,101898.75
2022-12-04T20:46:33.693Z,101898.84
2022-12-04T20:49:02.271Z,101901.47
2022-12-04T20:51:31.408Z,101895.53
2022-12-04T20:53:59.491Z,101891.38
2022-12-04T20:56:45.017Z,101897.66
2022-12-04T20:59:13.887Z,101899.31
2022-12-04T21:01:40.880Z,101903.78
2022-12-04T21:04:07.871Z,101901.13
2022-12-04T21:06:39.613Z,101904.72
2022-12-04T21:09:12.183Z,101909.00
2022-12-04T21:11:42.198Z,101899.56
2022-12-04T21:14:34.146Z,101907.38
2022-12-04T21:17:01.544Z,101895.94
2022-12-04T21:19:28.247Z,101897.22
2022-12-04T21:21:54.807Z,101900.06
2022-12-04T21:24:23.306Z,101898.41
2022-12-04T21:26:49.718Z,101901.22
2022-12-04T21:29:16.094Z,101895.25
2022-12-04T21:31:42.984Z,101896.22
2022-12-04T21:34:12.628Z,101897.09
2022-12-04T21:36:39.829Z,101904.03
2022-12-04T21:39:07.735Z,101905.81
2022-12-04T21:41:52.934Z,101902.25
2022-12-04T21:44:20.790Z,101904.03
2022-12-04T21:46:48.267Z,101899.66
2022-12-04T21:49:16.087Z,101902.25
2022-12-04T21:51:59.238Z,101899.66
2022-12-04T21:54:29.228Z,101895.44
2022-12-04T21:56:56.515Z,101893.72
2022-12-04T21:59:26.396Z,101900.63
2022-12-04T22:01:53.718Z,101898.03
2022-12-04T22:04:21.304Z,101901.41
2022-12-04T22:06:47.646Z,101900.78
2022-12-04T22:09:14.180Z,101903.44
2022-12-04T22:11:41.826Z,101900.84
2022-12-04T22:14:08.824Z,101909.56
2022-12-04T22:16:40.016Z,101898.25
2022-12-04T22:19:08.632Z,101904.50
2022-12-04T22:21:35.000Z,101902.88
2022-12-04T22:24:03.255Z,101905.66
2022-12-04T22:26:33.280Z,101890.84
2022-12-04T22:28:59.747Z,101899.47
2022-12-04T22:31:28.324Z,101899.38
2022-12-04T22:33:57.442Z,101900.28
2022-12-04T22:36:27.162Z,101891.91
2022-12-04T22:39:10.836Z,101899.75
2022-12-04T22:41:37.857Z,101900.00
2022-12-04T22:44:05.989Z,101895.78
2022-12-04T22:46:33.657Z,101897.66
2022-12-04T22:49:00.424Z,101889.91
2022-12-04T22:51:27.850Z,101892.44
2022-12-04T22:53:56.970Z,101897.06
2022-12-04T22:56:24.723Z,101903.25
2022-12-04T22:58:51.672Z,101898.78
2022-12-04T23:01:20.801Z,101898.78
2022-12-04T23:03:48.193Z,101901.53
2022-12-04T23:06:15.739Z,101891.13
2022-12-04T23:08:43.066Z,101891.13
2022-12-04T23:11:13.440Z,101894.69
2022-12-04T23:13:40.653Z,101895.59
2022-12-04T23:16:09.731Z,101882.63
2022-12-04T23:18:36.986Z,101889.78
2022-12-04T23:21:08.861Z,101883.75
2022-12-04T23:23:37.726Z,101885.47
2022-12-04T23:26:07.008Z,101888.06
2022-12-04T23:28:33.756Z,101883.00
2022-12-04T23:31:01.878Z,101890.91
2022-12-04T23:33:29.248Z,101882.13
2022-12-04T23:35:57.576Z,101881.28
2022-12-04T23:38:25.332Z,101877.06
2022-12-04T23:41:03.355Z,101878.88
2022-12-04T23:43:29.995Z,101881.53
2022-12-04T23:45:56.951Z,101877.22
2022-12-04T23:48:24.640Z,101878.88
2022-12-04T23:50:51.438Z,101880.56
2022-12-04T23:53:18.799Z,101887.47
2022-12-04T23:55:54.671Z,101877.91
2022-12-04T23:58:21.166Z,101878.88
